Time;durP1;ratioP1;P1;durP2;ratioP2;P2;SDS_P1;SDS_P2;PMS_P1;PMS_P2;Temp;Humidity;BMP_temperature;BMP_pressure;BME280_temperature;BME280_humidity;BME280_pressure;Samples;Min_cycle;Max_cycle;Signal;HPM_P1;HPM_P2
2023/09/29 00:00:41;;;;;;;3.00;2.17;;;;;;;;;;5909948;28;20052;-74
2023/09/29 00:03:32;;;;;;;4.28;2.92;;;;;;;;;;5906430;28;20460;-74
2023/09/29 00:06:23;;;;;;;7.57;2.72;;;;;;;;;;5910290;28;20341;-74
2023/09/29 00:09:16;;;;;;;9.65;3.67;;;;;;;;;;5909670;28;20048;-74
2023/09/29 00:12:06;;;;;;;3.70;2.45;;;;;;;;;;5914565;28;20048;-74
2023/09/29 00:14:57;;;;;;;11.60;2.42;;;;;;;;;;5914895;28;20067;-76
2023/09/29 00:17:48;;;;;;;6.85;3.45;;;;;;;;;;5914360;28;20507;-74
2023/09/29 00:20:39;;;;;;;5.28;2.92;;;;;;;;;;5914302;28;20174;-74
2023/09/29 00:23:31;;;;;;;5.10;3.03;;;;;;;;;;5914106;28;20056;-75
2023/09/29 00:26:21;;;;;;;3.05;2.75;;;;;;;;;;5897527;28;20127;-75
2023/09/29 00:29:12;;;;;;;5.07;2.75;;;;;;;;;;5895868;28;20128;-75
2023/09/29 00:32:03;;;;;;;9.38;3.05;;;;;;;;;;5890803;28;20532;-74
2023/09/29 00:34:58;;;;;;;4.63;2.13;;;;;;;;;;5873685;28;20500;-74
2023/09/29 00:37:49;;;;;;;4.85;2.60;;;;;;;;;;5872966;28;20041;-74
2023/09/29 00:40:39;;;;;;;7.70;3.40;;;;;;;;;;5890563;28;20130;-75
2023/09/29 00:43:32;;;;;;;3.33;2.60;;;;;;;;;;5890436;28;20057;-74
2023/09/29 00:46:25;;;;;;;4.53;3.55;;;;;;;;;;5890141;28;20045;-75
2023/09/29 00:49:16;;;;;;;3.80;3.13;;;;;;;;;;5890379;28;20069;-75
2023/09/29 00:52:07;;;;;;;3.08;2.55;;;;;;;;;;5872713;28;20058;-74
2023/09/29 00:54:58;;;;;;;4.57;2.55;;;;;;;;;;5890740;28;20041;-75
2023/09/29 00:57:52;;;;;;;3.70;2.75;;;;;;;;;;5896279;28;20047;-74
2023/09/29 01:00:45;;;;;;;3.17;2.47;;;;;;;;;;5895661;28;20047;-74
2023/09/29 01:03:36;;;;;;;6.55;2.85;;;;;;;;;;5913179;28;20076;-74
2023/09/29 01:06:29;;;;;;;4.28;2.47;;;;;;;;;;5913360;28;20103;-75
2023/09/29 01:09:21;;;;;;;4.63;3.08;;;;;;;;;;5913361;28;20044;-75
2023/09/29 01:12:27;;;;;;;2.97;2.38;;;;;;;;;;5912999;28;20048;-75
2023/09/29 01:15:19;;;;;;;9.57;2.55;;;;;;;;;;5913171;28;20048;-76
2023/09/29 01:18:09;;;;;;;3.90;2.58;;;;;;;;;;5913049;28;20119;-75
2023/09/29 01:21:03;;;;;;;3.65;3.17;;;;;;;;;;5912599;28;20045;-76
2023/09/29 01:23:54;;;;;;;4.03;2.83;;;;;;;;;;5913429;28;20052;-75
2023/09/29 01:26:45;;;;;;;4.03;3.22;;;;;;;;;;5912912;28;20045;-75
2023/09/29 01:29:36;;;;;;;15.10;3.17;;;;;;;;;;5912946;28;20044;-75
2023/09/29 01:32:27;;;;;;;2.60;2.25;;;;;;;;;;5912516;28;20131;-75
2023/09/29 01:35:23;;;;;;;3.47;2.83;;;;;;;;;;5912514;28;20044;-75
2023/09/29 01:38:14;;;;;;;3.30;2.53;;;;;;;;;;5912404;28;20040;-75
2023/09/29 01:41:05;;;;;;;14.45;3.60;;;;;;;;;;5912626;28;20479;-76
2023/09/29 01:43:55;;;;;;;2.47;2.17;;;;;;;;;;5894976;28;20376;-75
2023/09/29 01:46:49;;;;;;;2.95;2.65;;;;;;;;;;5912439;28;20049;-75
2023/09/29 01:49:40;;;;;;;2.75;2.03;;;;;;;;;;5912220;28;20387;-75
2023/09/29 01:52:31;;;;;;;5.18;2.75;;;;;;;;;;5912194;28;20503;-74
2023/09/29 01:55:24;;;;;;;9.15;2.53;;;;;;;;;;5912126;28;20127;-76
2023/09/29 01:58:15;;;;;;;6.78;2.35;;;;;;;;;;5911906;28;20053;-75
2023/09/29 02:01:06;;;;;;;11.57;3.28;;;;;;;;;;5912233;28;20041;-76
2023/09/29 02:03:57;;;;;;;3.05;1.92;;;;;;;;;;5912640;28;20507;-75
2023/09/29 02:06:50;;;;;;;4.50;3.10;;;;;;;;;;5911880;28;20087;-75
2023/09/29 02:09:42;;;;;;;9.68;3.58;;;;;;;;;;5906139;28;20053;-75
2023/09/29 02:12:33;;;;;;;4.05;2.88;;;;;;;;;;5896648;28;20049;-74
2023/09/29 02:15:25;;;;;;;2.25;2.00;;;;;;;;;;5890526;28;20399;-76
2023/09/29 02:18:17;;;;;;;3.30;2.40;;;;;;;;;;5911502;28;20041;-76
2023/09/29 02:21:09;;;;;;;5.93;3.08;;;;;;;;;;5911762;28;20379;-75
2023/09/29 02:23:59;;;;;;;7.55;2.45;;;;;;;;;;5912105;28;20052;-74
2023/09/29 02:26:50;;;;;;;2.63;1.95;;;;;;;;;;5911746;28;20495;-74
2023/09/29 02:29:41;;;;;;;3.35;2.30;;;;;;;;;;5911236;28;20051;-75
2023/09/29 02:32:34;;;;;;;2.72;2.33;;;;;;;;;;5910600;28;20450;-75
2023/09/29 02:35:25;;;;;;;2.53;2.20;;;;;;;;;;5911367;28;20116;-75
2023/09/29 02:38:16;;;;;;;2.20;1.88;;;;;;;;;;5910987;28;20036;-75
2023/09/29 02:41:08;;;;;;;4.43;3.13;;;;;;;;;;5911100;28;20044;-75
2023/09/29 02:43:59;;;;;;;4.70;3.10;;;;;;;;;;5911601;28;20048;-76
2023/09/29 02:46:50;;;;;;;2.38;2.15;;;;;;;;;;5911418;28;20041;-75
2023/09/29 02:49:41;;;;;;;3.03;1.85;;;;;;;;;;5911082;28;20079;-75
2023/09/29 02:52:32;;;;;;;1.77;1.60;;;;;;;;;;5911080;28;20040;-74
2023/09/29 02:55:23;;;;;;;2.83;2.55;;;;;;;;;;5910937;28;20044;-75
2023/09/29 02:58:14;;;;;;;4.03;3.13;;;;;;;;;;5910867;28;20139;-75
2023/09/29 03:01:12;;;;;;;1.88;1.77;;;;;;;;;;5911118;28;20483;-75
2023/09/29 03:04:03;;;;;;;8.05;2.05;;;;;;;;;;5903279;28;20421;-75
2023/09/29 03:06:54;;;;;;;4.82;2.28;;;;;;;;;;5910011;28;20146;-76
2023/09/29 03:09:45;;;;;;;4.03;2.72;;;;;;;;;;5910826;28;20044;-75
2023/09/29 03:12:36;;;;;;;2.78;2.17;;;;;;;;;;5910831;28;20375;-75
2023/09/29 03:15:27;;;;;;;3.47;2.90;;;;;;;;;;5910808;28;20456;-75
2023/09/29 03:18:18;;;;;;;4.70;2.80;;;;;;;;;;5910614;28;20041;-76
2023/09/29 03:21:09;;;;;;;4.72;3.25;;;;;;;;;;5910680;28;20044;-74
2023/09/29 03:24:02;;;;;;;8.38;2.97;;;;;;;;;;5911093;28;20048;-76
2023/09/29 03:26:53;;;;;;;3.00;1.75;;;;;;;;;;5893252;28;20430;-75
2023/09/29 03:29:44;;;;;;;3.28;2.35;;;;;;;;;;5884491;28;20040;-74
2023/09/29 03:32:35;;;;;;;3.92;1.88;;;;;;;;;;5910479;28;20044;-75
2023/09/29 03:35:26;;;;;;;6.18;2.53;;;;;;;;;;5902395;28;20043;-74
2023/09/29 03:38:20;;;;;;;3.67;2.67;;;;;;;;;;5910488;28;20095;-75
2023/09/29 03:41:11;;;;;;;1.63;1.52;;;;;;;;;;5910549;28;20431;-74
2023/09/29 03:44:02;;;;;;;2.78;2.05;;;;;;;;;;5911835;28;20047;-76
2023/09/29 03:46:53;;;;;;;2.92;2.63;;;;;;;;;;5897767;28;20059;-74
2023/09/29 03:49:45;;;;;;;3.28;2.95;;;;;;;;;;5914944;28;20045;-74
2023/09/29 03:52:37;;;;;;;3.80;3.03;;;;;;;;;;5910072;28;20045;-75
2023/09/29 03:55:28;;;;;;;1.95;1.80;;;;;;;;;;5891841;28;20083;-74
2023/09/29 03:58:19;;;;;;;2.83;2.47;;;;;;;;;;5891439;28;20045;-75
2023/09/29 04:01:10;;;;;;;2.28;2.08;;;;;;;;;;5891376;28;20048;-75
2023/09/29 04:04:02;;;;;;;2.70;2.47;;;;;;;;;;5891524;28;20045;-75
2023/09/29 04:06:53;;;;;;;3.38;2.83;;;;;;;;;;5898822;28;20119;-76
2023/09/29 04:09:44;;;;;;;3.40;2.60;;;;;;;;;;5891332;28;20045;-74
2023/09/29 04:12:37;;;;;;;2.25;1.80;;;;;;;;;;5891134;28;20060;-74
2023/09/29 04:15:28;;;;;;;2.58;2.38;;;;;;;;;;5891247;28;20037;-74
2023/09/29 04:18:19;;;;;;;3.85;2.50;;;;;;;;;;5891041;28;20041;-75
2023/09/29 04:21:12;;;;;;;3.10;2.75;;;;;;;;;;5890970;28;20149;-75
2023/09/29 04:24:03;;;;;;;3.80;2.35;;;;;;;;;;5891165;28;20053;-74
2023/09/29 04:26:53;;;;;;;3.33;2.67;;;;;;;;;;5891446;28;20064;-75
2023/09/29 04:29:44;;;;;;;4.68;3.40;;;;;;;;;;5890917;28;20041;-77
2023/09/29 04:32:35;;;;;;;2.58;2.38;;;;;;;;;;5890639;28;20058;-75
2023/09/29 04:35:26;;;;;;;3.40;3.08;;;;;;;;;;5890811;28;20041;-74
2023/09/29 04:38:17;;;;;;;3.35;2.40;;;;;;;;;;5890483;28;20071;-74
2023/09/29 04:41:08;;;;;;;3.72;2.38;;;;;;;;;;5890538;28;20041;-74
2023/09/29 04:44:00;;;;;;;3.42;2.90;;;;;;;;;;5873386;28;20045;-74
2023/09/29 04:46:51;;;;;;;2.85;2.65;;;;;;;;;;5890770;28;20045;-74
2023/09/29 04:49:42;;;;;;;5.57;2.75;;;;;;;;;;5890401;28;20076;-75
2023/09/29 04:52:32;;;;;;;4.38;3.83;;;;;;;;;;5890261;28;20060;-75
2023/09/29 04:55:23;;;;;;;3.78;2.45;;;;;;;;;;5889636;28;20033;-74
2023/09/29 04:58:14;;;;;;;2.25;2.05;;;;;;;;;;5880721;28;20526;-74
2023/09/29 05:01:05;;;;;;;3.45;2.47;;;;;;;;;;5898450;28;20450;-75
2023/09/29 05:03:55;;;;;;;5.03;2.72;;;;;;;;;;5890558;28;20053;-75
2023/09/29 05:06:46;;;;;;;3.47;2.75;;;;;;;;;;5890045;28;20059;-74
2023/09/29 05:09:37;;;;;;;5.20;2.35;;;;;;;;;;5889997;28;20041;-76
2023/09/29 05:12:30;;;;;;;6.18;3.03;;;;;;;;;;5889757;28;20052;-74
2023/09/29 05:15:20;;;;;;;12.10;2.55;;;;;;;;;;5889800;28;20056;-74
2023/09/29 05:18:11;;;;;;;5.30;2.92;;;;;;;;;;5889560;28;20049;-74
2023/09/29 05:21:02;;;;;;;5.25;2.83;;;;;;;;;;5889748;28;20122;-76
2023/09/29 05:23:53;;;;;;;7.88;3.67;;;;;;;;;;5855794;28;20052;-74
2023/09/29 05:26:44;;;;;;;3.17;2.88;;;;;;;;;;5870554;28;20445;-74
2023/09/29 05:29:35;;;;;;;4.43;3.13;;;;;;;;;;5871771;28;20504;-74
2023/09/29 05:32:25;;;;;;;8.88;4.30;;;;;;;;;;5889361;28;20045;-75
2023/09/29 05:35:16;;;;;;;7.93;3.65;;;;;;;;;;5889259;28;20080;-74
2023/09/29 05:38:07;;;;;;;2.83;2.50;;;;;;;;;;5889376;28;20399;-75
2023/09/29 05:40:58;;;;;;;2.63;1.95;;;;;;;;;;5889782;28;20037;-74
2023/09/29 05:43:49;;;;;;;4.53;3.00;;;;;;;;;;5888834;28;20045;-75
2023/09/29 05:46:39;;;;;;;3.90;2.45;;;;;;;;;;5893154;28;20487;-74
2023/09/29 05:49:32;;;;;;;2.58;2.38;;;;;;;;;;5890293;28;20464;-74
2023/09/29 05:52:23;;;;;;;3.10;2.05;;;;;;;;;;5888805;28;20381;-73
2023/09/29 05:55:13;;;;;;;8.05;3.17;;;;;;;;;;5888723;28;20038;-75
2023/09/29 05:58:04;;;;;;;3.22;2.67;;;;;;;;;;5888879;28;20136;-73
2023/09/29 06:00:55;;;;;;;3.25;2.95;;;;;;;;;;5871451;28;20059;-73
2023/09/29 06:03:46;;;;;;;4.32;3.20;;;;;;;;;;5888649;28;20052;-73
2023/09/29 06:06:37;;;;;;;4.07;3.47;;;;;;;;;;5888405;28;20052;-75
2023/09/29 06:09:30;;;;;;;2.45;1.90;;;;;;;;;;5888509;28;20115;-73
2023/09/29 06:12:20;;;;;;;2.83;2.40;;;;;;;;;;5889825;28;20045;-74
2023/09/29 06:15:11;;;;;;;5.53;2.53;;;;;;;;;;5893695;28;20071;-73
2023/09/29 06:18:02;;;;;;;2.00;1.85;;;;;;;;;;5911634;28;20127;-73
2023/09/29 06:20:53;;;;;;;4.72;2.90;;;;;;;;;;5911944;28;20357;-73
2023/09/29 06:23:44;;;;;;;4.03;2.70;;;;;;;;;;5911220;28;20502;-74
2023/09/29 06:26:35;;;;;;;4.05;2.28;;;;;;;;;;5911517;28;20414;-74
2023/09/29 06:29:26;;;;;;;2.33;2.03;;;;;;;;;;5911254;28;20122;-73
2023/09/29 06:32:17;;;;;;;3.70;3.08;;;;;;;;;;5911100;28;20063;-74
2023/09/29 06:35:09;;;;;;;7.70;2.58;;;;;;;;;;5911135;28;20048;-73
2023/09/29 06:38:00;;;;;;;2.58;2.35;;;;;;;;;;5911628;28;20040;-74
2023/09/29 06:40:51;;;;;;;7.00;3.42;;;;;;;;;;5911323;28;20517;-73
2023/09/29 06:43:45;;;;;;;4.00;2.55;;;;;;;;;;5910855;28;20051;-75
2023/09/29 06:46:36;;;;;;;12.77;1.92;;;;;;;;;;5910714;28;20420;-74
2023/09/29 06:49:27;;;;;;;3.47;2.17;;;;;;;;;;5909555;28;20037;-73
2023/09/29 06:52:18;;;;;;;2.10;1.90;;;;;;;;;;5893147;28;20389;-73
2023/09/29 06:55:09;;;;;;;6.13;2.47;;;;;;;;;;5910523;28;20071;-74
2023/09/29 06:58:04;;;;;;;4.03;2.63;;;;;;;;;;5911304;28;20190;-73
2023/09/29 07:00:56;;;;;;;4.60;2.65;;;;;;;;;;5892836;28;20546;-74
2023/09/29 07:03:51;;;;;;;5.55;2.50;;;;;;;;;;5910750;28;20443;-74
2023/09/29 07:06:42;;;;;;;2.45;2.15;;;;;;;;;;5910352;28;20052;-73
2023/09/29 07:09:33;;;;;;;3.47;1.77;;;;;;;;;;5910535;28;20124;-73
2023/09/29 07:12:24;;;;;;;15.07;2.55;;;;;;;;;;5910300;28;20033;-73
2023/09/29 07:15:15;;;;;;;3.30;1.95;;;;;;;;;;5910467;28;20044;-74
2023/09/29 07:18:10;;;;;;;3.65;1.77;;;;;;;;;;5892331;28;20504;-75
2023/09/29 07:21:02;;;;;;;2.78;1.42;;;;;;;;;;5910422;28;20052;-74
2023/09/29 07:23:53;;;;;;;2.35;1.60;;;;;;;;;;5892957;28;20055;-74
2023/09/29 07:26:44;;;;;;;2.25;1.77;;;;;;;;;;5910163;28;20480;-74
2023/09/29 07:29:35;;;;;;;1.63;1.17;;;;;;;;;;5910070;28;20440;-75
2023/09/29 07:32:26;;;;;;;8.18;2.25;;;;;;;;;;5910100;28;20051;-73
2023/09/29 07:35:18;;;;;;;9.60;2.50;;;;;;;;;;5910127;28;20056;-73
2023/09/29 07:38:10;;;;;;;4.13;2.30;;;;;;;;;;5910139;28;20464;-74
2023/09/29 07:41:04;;;;;;;2.83;1.63;;;;;;;;;;5892503;28;20060;-74
2023/09/29 07:43:56;;;;;;;4.35;1.83;;;;;;;;;;5910422;28;20076;-73
2023/09/29 07:46:52;;;;;;;1.40;1.17;;;;;;;;;;5909883;28;20040;-73
2023/09/29 07:49:43;;;;;;;3.63;1.65;;;;;;;;;;5909936;28;20396;-73
2023/09/29 07:52:37;;;;;;;4.53;2.15;;;;;;;;;;5892160;28;20045;-73
2023/09/29 07:55:28;;;;;;;3.13;1.38;;;;;;;;;;5909891;28;20130;-73
2023/09/29 07:58:19;;;;;;;2.50;1.52;;;;;;;;;;5909757;28;20510;-74
2023/09/29 08:01:10;;;;;;;22.08;2.10;;;;;;;;;;5909863;28;20040;-74
2023/09/29 08:04:01;;;;;;;1.65;1.23;;;;;;;;;;5909858;28;20055;-75
2023/09/29 08:06:52;;;;;;;2.42;1.70;;;;;;;;;;5910180;28;20041;-74
2023/09/29 08:09:43;;;;;;;3.05;1.33;;;;;;;;;;5909863;28;20052;-74
2023/09/29 08:12:36;;;;;;;3.88;1.30;;;;;;;;;;5892169;28;20049;-73
2023/09/29 08:15:26;;;;;;;18.80;1.48;;;;;;;;;;5909735;28;20467;-75
2023/09/29 08:18:17;;;;;;;3.20;1.95;;;;;;;;;;5898829;28;20041;-73
2023/09/29 08:21:08;;;;;;;4.90;1.75;;;;;;;;;;5886155;28;20180;-73
2023/09/29 08:24:05;;;;;;;5.07;1.63;;;;;;;;;;5894677;28;20060;-75
2023/09/29 08:26:55;;;;;;;16.83;1.50;;;;;;;;;;5893922;28;20103;-74
2023/09/29 08:29:46;;;;;;;4.88;1.58;;;;;;;;;;5886300;28;20136;-74
2023/09/29 08:32:39;;;;;;;11.90;1.52;;;;;;;;;;5889689;28;20123;-73
2023/09/29 08:35:30;;;;;;;2.85;1.25;;;;;;;;;;5890381;28;20052;-74
2023/09/29 08:38:22;;;;;;;4.78;2.00;;;;;;;;;;5890077;28;20131;-75
2023/09/29 08:41:15;;;;;;;3.83;1.45;;;;;;;;;;5890190;28;20083;-73
2023/09/29 08:44:08;;;;;;;3.83;1.73;;;;;;;;;;5890097;28;20057;-74
2023/09/29 08:47:01;;;;;;;1.27;1.17;;;;;;;;;;5890535;28;20041;-74
2023/09/29 08:49:52;;;;;;;2.35;1.75;;;;;;;;;;5913386;28;20561;-74
2023/09/29 08:52:45;;;;;;;1.98;1.65;;;;;;;;;;5912981;28;20049;-73
2023/09/29 08:55:37;;;;;;;2.80;1.95;;;;;;;;;;5913185;28;20111;-74
2023/09/29 08:58:30;;;;;;;17.13;2.45;;;;;;;;;;5912952;28;20041;-74
2023/09/29 09:01:20;;;;;;;1.55;1.33;;;;;;;;;;5895385;28;20063;-73
2023/09/29 09:04:12;;;;;;;3.10;1.85;;;;;;;;;;5913033;28;20080;-74
2023/09/29 09:07:03;;;;;;;8.75;1.77;;;;;;;;;;5912937;28;20048;-74
2023/09/29 09:09:55;;;;;;;2.28;1.42;;;;;;;;;;5913321;28;20040;-74
2023/09/29 09:12:46;;;;;;;4.05;1.52;;;;;;;;;;5912555;28;20049;-71
2023/09/29 09:15:37;;;;;;;2.78;1.48;;;;;;;;;;5912846;28;20472;-73
2023/09/29 09:18:27;;;;;;;1.60;1.35;;;;;;;;;;5894728;28;20040;-73
2023/09/29 09:21:19;;;;;;;4.70;2.10;;;;;;;;;;5894863;28;20076;-74
2023/09/29 09:24:21;;;;;;;1.80;1.45;;;;;;;;;;5912631;28;20044;-71
2023/09/29 09:27:13;;;;;;;2.28;1.63;;;;;;;;;;5912408;28;20054;-74
2023/09/29 09:30:05;;;;;;;2.90;1.73;;;;;;;;;;5911241;28;20119;-73
2023/09/29 09:32:56;;;;;;;2.78;1.33;;;;;;;;;;5912783;28;20041;-74
2023/09/29 09:35:50;;;;;;;8.48;1.40;;;;;;;;;;5894426;28;20064;-71
2023/09/29 09:38:42;;;;;;;8.95;1.75;;;;;;;;;;5893409;28;20056;-75
2023/09/29 09:41:34;;;;;;;3.28;1.25;;;;;;;;;;5911838;28;20052;-74
2023/09/29 09:44:26;;;;;;;2.40;1.50;;;;;;;;;;5894128;28;20048;-73
2023/09/29 09:47:18;;;;;;;6.38;1.42;;;;;;;;;;5911939;28;20356;-72
2023/09/29 09:50:11;;;;;;;12.02;1.45;;;;;;;;;;5894023;28;20044;-74
2023/09/29 09:53:08;;;;;;;4.78;1.95;;;;;;;;;;5911971;28;20048;-72
2023/09/29 09:56:14;;;;;;;2.28;1.45;;;;;;;;;;5912251;28;20064;-75
2023/09/29 09:59:07;;;;;;;1.67;1.20;;;;;;;;;;5910323;28;20045;-74
2023/09/29 10:01:58;;;;;;;1.48;1.27;;;;;;;;;;5912236;28;20387;-75
2023/09/29 10:04:50;;;;;;;1.83;1.10;;;;;;;;;;5911919;28;20611;-73
2023/09/29 10:07:49;;;;;;;2.05;1.10;;;;;;;;;;5893758;28;20159;-73
2023/09/29 10:10:41;;;;;;;3.13;1.55;;;;;;;;;;5911626;28;20443;-74
2023/09/29 10:13:35;;;;;;;1.55;1.33;;;;;;;;;;5893474;28;20432;-73
2023/09/29 10:16:26;;;;;;;8.45;2.08;;;;;;;;;;5911114;28;20037;-75
2023/09/29 10:19:17;;;;;;;3.08;1.63;;;;;;;;;;5911075;28;20048;-72
2023/09/29 10:22:08;;;;;;;1.67;1.30;;;;;;;;;;5911120;28;20048;-73
2023/09/29 10:25:10;;;;;;;3.63;1.65;;;;;;;;;;5910471;28;20063;-73
2023/09/29 10:28:06;;;;;;;1.77;1.25;;;;;;;;;;5910564;28;20051;-74
2023/09/29 10:31:17;;;;;;;1.50;1.33;;;;;;;;;;5911568;28;20514;-74
2023/09/29 10:34:08;;;;;;;6.68;1.60;;;;;;;;;;5910742;28;20055;-72
2023/09/29 10:36:59;;;;;;;3.25;1.20;;;;;;;;;;5893397;28;20475;-74
2023/09/29 10:39:50;;;;;;;2.88;1.10;;;;;;;;;;5911115;28;20500;-73
2023/09/29 10:42:42;;;;;;;16.45;2.17;;;;;;;;;;5910780;28;20400;-72
2023/09/29 10:45:40;;;;;;;1.67;1.05;;;;;;;;;;5892804;28;20048;-73
2023/09/29 10:48:33;;;;;;;;;;;;;;;;;;5910996;28;20049;-74
2023/09/29 10:51:31;;;;;;;3.10;1.17;;;;;;;;;;5910632;28;20074;-72
2023/09/29 10:54:23;;;;;;;1.50;1.35;;;;;;;;;;5910108;28;20364;-74
2023/09/29 10:57:19;;;;;;;5.22;1.83;;;;;;;;;;5910689;28;20660;-72
2023/09/29 11:00:11;;;;;;;7.30;1.73;;;;;;;;;;5910816;28;20443;-72
2023/09/29 11:03:02;;;;;;;5.15;1.52;;;;;;;;;;5910488;28;20051;-73
2023/09/29 11:05:54;;;;;;;3.28;1.25;;;;;;;;;;5910829;28;20045;-73
2023/09/29 11:08:59;;;;;;;1.58;0.93;;;;;;;;;;5892736;28;20126;-74
2023/09/29 11:11:49;;;;;;;2.65;1.38;;;;;;;;;;5910628;28;20468;-74
2023/09/29 11:14:40;;;;;;;6.32;1.30;;;;;;;;;;5892510;28;20052;-74
2023/09/29 11:17:44;;;;;;;4.30;1.60;;;;;;;;;;5910319;28;20036;-73
2023/09/29 11:20:37;;;;;;;1.48;1.10;;;;;;;;;;5910537;28;20052;-75
2023/09/29 11:23:48;;;;;;;2.20;1.00;;;;;;;;;;5892764;28;20051;-74
2023/09/29 11:26:43;;;;;;;2.47;1.60;;;;;;;;;;5910413;28;20518;-72
2023/09/29 11:29:34;;;;;;;1.20;1.05;;;;;;;;;;5910370;28;20045;-74
2023/09/29 11:32:25;;;;;;;2.05;0.95;;;;;;;;;;5910146;28;20396;-73
2023/09/29 11:35:16;;;;;;;1.40;0.95;;;;;;;;;;5910256;28;20412;-74
2023/09/29 11:38:07;;;;;;;1.67;1.58;;;;;;;;;;5910025;28;20110;-74
2023/09/29 11:41:01;;;;;;;2.63;1.27;;;;;;;;;;5909995;28;20055;-74
2023/09/29 11:43:52;;;;;;;2.85;1.95;;;;;;;;;;5910632;28;20048;-76
2023/09/29 11:46:44;;;;;;;3.50;1.63;;;;;;;;;;5909941;28;20045;-74
2023/09/29 11:49:34;;;;;;;3.92;1.65;;;;;;;;;;5892318;28;20048;-75
2023/09/29 11:52:26;;;;;;;2.83;1.73;;;;;;;;;;5909841;28;20052;-72
2023/09/29 11:55:17;;;;;;;4.18;1.73;;;;;;;;;;5909953;28;20040;-73
2023/09/29 11:58:09;;;;;;;2.22;1.40;;;;;;;;;;5910142;28;20041;-74
2023/09/29 12:01:00;;;;;;;4.25;1.98;;;;;;;;;;5910344;28;20044;-74
2023/09/29 12:03:51;;;;;;;6.97;2.22;;;;;;;;;;5909864;28;20047;-74
2023/09/29 12:06:42;;;;;;;3.00;1.48;;;;;;;;;;5913863;28;20122;-74
2023/09/29 12:09:33;;;;;;;8.27;1.90;;;;;;;;;;5913064;28;20864;-74
2023/09/29 12:12:24;;;;;;;1.85;1.15;;;;;;;;;;5913525;28;20499;-75
2023/09/29 12:15:17;;;;;;;7.85;1.77;;;;;;;;;;5914053;28;20041;-72
2023/09/29 12:18:09;;;;;;;4.82;2.08;;;;;;;;;;5902950;28;21792;-73
2023/09/29 12:21:08;;;;;;;2.15;1.55;;;;;;;;;;5913920;28;20509;-75
2023/09/29 12:24:00;;;;;;;13.40;1.52;;;;;;;;;;5913788;28;20044;-72
2023/09/29 12:26:51;;;;;;;2.97;1.60;;;;;;;;;;5894278;28;20040;-73
2023/09/29 12:29:41;;;;;;;3.85;1.60;;;;;;;;;;5914660;28;20134;-73
2023/09/29 12:32:32;;;;;;;6.50;2.22;;;;;;;;;;5912837;28;20416;-74
2023/09/29 12:35:23;;;;;;;1.15;1.05;;;;;;;;;;5913216;28;20044;-74
2023/09/29 12:38:14;;;;;;;3.45;1.05;;;;;;;;;;5930880;28;20040;-72
2023/09/29 12:41:05;;;;;;;3.70;1.98;;;;;;;;;;5928229;28;20048;-75
2023/09/29 12:43:55;;;;;;;1.48;0.93;;;;;;;;;;5913466;28;20052;-74
2023/09/29 12:46:47;;;;;;;4.45;1.42;;;;;;;;;;5912629;28;20129;-73
2023/09/29 12:49:37;;;;;;;8.15;1.27;;;;;;;;;;5924780;28;20051;-72
2023/09/29 12:52:28;;;;;;;2.30;1.50;;;;;;;;;;5915528;28;20045;-74
2023/09/29 12:55:20;;;;;;;21.98;2.35;;;;;;;;;;5871903;28;20037;-74
2023/09/29 12:58:11;;;;;;;3.15;1.80;;;;;;;;;;5915172;28;20040;-74
2023/09/29 13:01:02;;;;;;;1.73;1.30;;;;;;;;;;5935677;28;20398;-74
2023/09/29 13:03:53;;;;;;;9.43;1.63;;;;;;;;;;5895610;28;20045;-75
2023/09/29 13:06:44;;;;;;;2.60;1.27;;;;;;;;;;5894815;28;20045;-75
2023/09/29 13:09:37;;;;;;;1.98;1.20;;;;;;;;;;5923111;28;20044;-73
2023/09/29 13:12:28;;;;;;;4.53;1.52;;;;;;;;;;5923216;28;20585;-74
2023/09/29 13:15:21;;;;;;;2.63;1.60;;;;;;;;;;5912329;28;20052;-75
2023/09/29 13:18:12;;;;;;;1.83;1.48;;;;;;;;;;5918743;28;20043;-75
2023/09/29 13:21:03;;;;;;;4.15;1.35;;;;;;;;;;5935139;28;20051;-73
2023/09/29 13:23:54;;;;;;;4.15;1.33;;;;;;;;;;5912777;28;20044;-74
2023/09/29 13:26:47;;;;;;;2.10;1.65;;;;;;;;;;5911916;28;20159;-75
2023/09/29 13:29:38;;;;;;;1.33;1.05;;;;;;;;;;5922560;28;20059;-74
2023/09/29 13:32:29;;;;;;;3.65;1.67;;;;;;;;;;5922581;28;20415;-76
2023/09/29 13:35:21;;;;;;;2.50;1.42;;;;;;;;;;5893877;28;20083;-75
2023/09/29 13:38:13;;;;;;;2.05;1.38;;;;;;;;;;5918021;28;20040;-74
2023/09/29 13:41:04;;;;;;;2.08;1.15;;;;;;;;;;5916488;28;20794;-73
2023/09/29 13:43:56;;;;;;;1.77;1.23;;;;;;;;;;5911954;28;20040;-75
2023/09/29 13:46:47;;;;;;;10.10;1.65;;;;;;;;;;5911368;28;20041;-75
2023/09/29 13:49:53;;;;;;;3.55;1.40;;;;;;;;;;5932341;28;20047;-73
2023/09/29 13:52:45;;;;;;;4.88;1.42;;;;;;;;;;5919505;28;20045;-74
2023/09/29 13:55:37;;;;;;;2.30;1.15;;;;;;;;;;5893531;28;20041;-74
2023/09/29 13:58:28;;;;;;;3.70;1.67;;;;;;;;;;5916538;28;20044;-74
2023/09/29 14:01:19;;;;;;;2.10;1.75;;;;;;;;;;5926362;28;20052;-75
2023/09/29 14:04:10;;;;;;;2.95;1.30;;;;;;;;;;5911218;28;20044;-76
2023/09/29 14:07:02;;;;;;;2.95;1.08;;;;;;;;;;5911042;28;20047;-75
2023/09/29 14:09:54;;;;;;;2.55;1.35;;;;;;;;;;5931540;28;20075;-74
2023/09/29 14:12:45;;;;;;;5.10;1.33;;;;;;;;;;5919034;28;20044;-74
2023/09/29 14:15:36;;;;;;;1.73;1.13;;;;;;;;;;5909314;28;20044;-74
2023/09/29 14:18:27;;;;;;;2.95;1.77;;;;;;;;;;5909349;28;20048;-76
2023/09/29 14:21:18;;;;;;;1.85;1.23;;;;;;;;;;5911368;28;20067;-74
2023/09/29 14:24:09;;;;;;;2.13;1.40;;;;;;;;;;5911147;28;20045;-74
2023/09/29 14:26:59;;;;;;;4.05;1.75;;;;;;;;;;5911714;28;20052;-73
2023/09/29 14:29:50;;;;;;;1.38;1.27;;;;;;;;;;5910230;28;20080;-75
2023/09/29 14:32:41;;;;;;;3.88;2.38;;;;;;;;;;5910771;28;20091;-74
2023/09/29 14:35:33;;;;;;;3.25;1.73;;;;;;;;;;5910794;28;20448;-74
2023/09/29 14:38:38;;;;;;;8.23;3.80;;;;;;;;;;5895317;28;20126;-74
2023/09/29 14:41:31;;;;;;;3.45;1.58;;;;;;;;;;5909892;28;20051;-74
2023/09/29 14:44:22;;;;;;;5.72;1.83;;;;;;;;;;5910563;28;20499;-74
2023/09/29 14:47:12;;;;;;;5.65;3.05;;;;;;;;;;5876513;28;20056;-75
2023/09/29 14:50:06;;;;;;;2.05;1.27;;;;;;;;;;5910657;28;20052;-74
2023/09/29 14:52:58;;;;;;;4.45;3.10;;;;;;;;;;5910942;28;20577;-75
2023/09/29 14:55:49;;;;;;;4.63;1.80;;;;;;;;;;5910727;28;20116;-74
2023/09/29 14:58:40;;;;;;;1.60;1.40;;;;;;;;;;5910599;28;20048;-76
2023/09/29 15:01:30;;;;;;;2.35;1.98;;;;;;;;;;5910619;28;20064;-74
2023/09/29 15:04:21;;;;;;;10.00;3.35;;;;;;;;;;5909228;28;20057;-74
2023/09/29 15:07:12;;;;;;;5.00;2.20;;;;;;;;;;5910392;28;20049;-75
2023/09/29 15:10:03;;;;;;;6.40;3.20;;;;;;;;;;5910631;28;20049;-75
2023/09/29 15:12:54;;;;;;;3.45;2.78;;;;;;;;;;5910851;28;20396;-75
2023/09/29 15:15:45;;;;;;;5.03;2.45;;;;;;;;;;5910469;28;20391;-74
2023/09/29 15:18:36;;;;;;;3.50;2.00;;;;;;;;;;5909853;28;20127;-75
2023/09/29 15:21:27;;;;;;;6.07;2.00;;;;;;;;;;5910271;28;20518;-75
2023/09/29 15:24:18;;;;;;;2.03;1.42;;;;;;;;;;5910199;28;20048;-74
2023/09/29 15:27:09;;;;;;;2.53;1.48;;;;;;;;;;5910298;28;20049;-75
2023/09/29 15:29:59;;;;;;;1.95;1.58;;;;;;;;;;5892870;28;20044;-75
2023/09/29 15:32:52;;;;;;;4.72;1.58;;;;;;;;;;5910353;28;20049;-74
2023/09/29 15:35:56;;;;;;;2.75;1.52;;;;;;;;;;5908838;28;20529;-74
2023/09/29 15:38:47;;;;;;;2.33;1.42;;;;;;;;;;5892243;28;20048;-74
2023/09/29 15:41:39;;;;;;;2.30;1.60;;;;;;;;;;5914233;28;20041;-74
2023/09/29 15:44:30;;;;;;;8.35;2.80;;;;;;;;;;5914729;28;20156;-75
2023/09/29 15:47:21;;;;;;;4.50;2.05;;;;;;;;;;5914633;28;20056;-75
2023/09/29 15:50:16;;;;;;;2.67;1.73;;;;;;;;;;5914766;28;20044;-75
2023/09/29 15:53:08;;;;;;;24.55;1.85;;;;;;;;;;5914506;28;20063;-74
2023/09/29 15:55:58;;;;;;;3.22;1.35;;;;;;;;;;5915076;28;20047;-74
2023/09/29 15:58:50;;;;;;;2.22;1.55;;;;;;;;;;5914520;28;20061;-75
2023/09/29 16:01:41;;;;;;;3.80;2.08;;;;;;;;;;5914434;28;20076;-74
2023/09/29 16:04:31;;;;;;;3.33;2.28;;;;;;;;;;5914317;28;20048;-75
2023/09/29 16:07:23;;;;;;;4.28;2.30;;;;;;;;;;5914391;28;20076;-74
2023/09/29 16:10:17;;;;;;;6.05;2.65;;;;;;;;;;5896640;28;20466;-74
2023/09/29 16:13:12;;;;;;;7.90;3.25;;;;;;;;;;5914270;28;20041;-74
2023/09/29 16:16:06;;;;;;;7.38;2.28;;;;;;;;;;5896894;28;20125;-75
2023/09/29 16:18:57;;;;;;;7.10;3.75;;;;;;;;;;5897112;28;20044;-75
2023/09/29 16:21:48;;;;;;;6.10;3.38;;;;;;;;;;5913937;28;20037;-74
2023/09/29 16:24:42;;;;;;;10.52;2.70;;;;;;;;;;5914151;28;20044;-74
2023/09/29 16:27:33;;;;;;;6.20;2.92;;;;;;;;;;5913973;28;20048;-74
2023/09/29 16:30:24;;;;;;;6.22;2.67;;;;;;;;;;5914214;28;20044;-75
2023/09/29 16:33:16;;;;;;;12.15;3.33;;;;;;;;;;5913835;28;20460;-74
2023/09/29 16:36:07;;;;;;;16.00;3.50;;;;;;;;;;5913739;28;20392;-74
2023/09/29 16:38:58;;;;;;;5.35;2.47;;;;;;;;;;5896313;28;20049;-74
2023/09/29 16:41:49;;;;;;;27.95;4.13;;;;;;;;;;5913674;28;20522;-74
2023/09/29 16:44:41;;;;;;;6.82;4.18;;;;;;;;;;5913593;28;20047;-75
2023/09/29 16:47:32;;;;;;;7.47;4.22;;;;;;;;;;5913539;28;20043;-74
2023/09/29 16:50:23;;;;;;;5.22;3.60;;;;;;;;;;5913658;28;20129;-74
2023/09/29 16:53:14;;;;;;;8.52;5.80;;;;;;;;;;5912321;28;20047;-74
2023/09/29 16:56:06;;;;;;;12.02;6.28;;;;;;;;;;5913440;28;20060;-74
2023/09/29 16:58:57;;;;;;;37.85;16.40;;;;;;;;;;5896361;28;20056;-74
2023/09/29 17:01:48;;;;;;;23.38;11.95;;;;;;;;;;5913160;28;20041;-75
2023/09/29 17:04:39;;;;;;;14.98;7.65;;;;;;;;;;5895423;28;20045;-74
2023/09/29 17:07:30;;;;;;;18.77;4.78;;;;;;;;;;5913108;28;20454;-75
2023/09/29 17:10:21;;;;;;;6.70;3.88;;;;;;;;;;5895219;28;20056;-75